LATI/TIA METAR and TAF weather

Enter ICAO airport designator
Station Type Date Time Source
LATI METAR 2021/04/14 19:50 UTC NOAA

LATI 141950Z VRB02KT 9999 SCT063 07/04 Q1020 NOSIG


Station Type Date Time Source
LATI Decoded METAR 2021/04/14 19:50 UTC NOAA

Tirana, Albania (LATI) 41-20N 019-47E 90M
Apr 14, 2021 - 03:50 PM EDT / 2021.04.14 1950 UTC
Wind: Variable at 2 MPH (2 KT):0
Visibility: greater than 7 mile(s):0
Sky conditions: partly cloudy
Temperature: 44 F (7 C)
Dew Point: 39 F (4 C)
Relative Humidity: 81%
Pressure (altimeter): 30.12 in. Hg (1020 hPa)
ob: LATI 141950Z VRB02KT 9999 SCT063 07/04 Q1020 NOSIG
cycle: 20

Station Type Date Time Source
LATI TAF 2021/04/14 18:06 UTC NOAA

TAF TAF LATI 141702Z 1418/1518 VRB03KT CAVOK TX16/1512Z TN05/1504Z
BECMG 1510/1512 34013KT

Example: see airport list